METAR

ENBN 110420Z AUTO 24009KT 9999NDV FEW034/// 03/M01 Q1012

ENMS 101450Z 20009KT 160V250 9999 FEW024 SCT040 04/M05 Q0999 RMK WIND 412FT 18008KT

ENNM 100850Z 14001KT 9999 VCSH FEW010 SCT025 03/M01 Q0996

ENOL 110420Z 25013KT 9999 VCSH SCT012TCU BKN020 02/00 Q1014 TEMPO 1200 SHSNRA VV008

ENST 092050Z VRB07G21KT 9999 -SHSN SCT015CB SCT040 02/M04 Q0987 RMK WIND 300FT 31013G28KT

ENVA 110420Z 00000KT 9999 BKN033 02/M05 Q1015 RMK WIND 670FT 23012KT



TAF

TAF ENVA 101700Z 1018/1118 25008KT 9999 -SHSNRA FEW015TCU BKN020 PROB40 TEMPO 1018/1108 1500 SHSNGS VV009 PROB40 TEMPO 1018/1108 SCT015CB